Time;durP1;ratioP1;P1;durP2;ratioP2;P2;SDS_P1;SDS_P2;PMS_P1;PMS_P2;Temp;Humidity;BMP_temperature;BMP_pressure;BME280_temperature;BME280_humidity;BME280_pressure;Samples;Min_cycle;Max_cycle;Signal;HPM_P1;HPM_P2
2022/12/27 00:01:55;;;;;;;1.45;0.77;;;8.60;99.90;;;;;;4948504;28;20201;-48
2022/12/27 00:04:24;;;;;;;3.90;1.30;;;8.60;99.90;;;;;;4958908;28;20259;-47
2022/12/27 00:06:52;;;;;;;1.33;0.80;;;8.60;99.90;;;;;;4954300;28;20436;-46
2022/12/27 00:09:24;;;;;;;1.50;0.70;;;8.60;99.90;;;;;;4938891;28;20487;-46
2022/12/27 00:11:53;;;;;;;1.17;0.77;;;8.60;99.90;;;;;;4951608;28;20878;-47
2022/12/27 00:14:27;;;;;;;2.27;0.80;;;8.60;99.90;;;;;;4950861;28;20482;-47
2022/12/27 00:16:56;;;;;;;2.28;1.45;;;8.60;99.90;;;;;;4933012;29;21051;-46
2022/12/27 00:19:24;;;;;;;0.93;0.60;;;8.60;99.90;;;;;;4937034;29;20267;-48
2022/12/27 00:21:53;;;;;;;2.20;1.00;;;8.60;99.90;;;;;;4933431;29;20436;-47
2022/12/27 00:24:22;;;;;;;2.77;1.23;;;8.60;99.90;;;;;;4940970;29;20490;-47
2022/12/27 00:26:52;;;;;;;2.00;1.07;;;8.60;99.90;;;;;;4930929;29;20464;-47
2022/12/27 00:29:21;;;;;;;1.10;0.73;;;8.60;99.90;;;;;;4940000;29;20995;-47
2022/12/27 00:31:50;;;;;;;2.03;1.10;;;8.50;99.90;;;;;;4936940;29;20441;-47
2022/12/27 00:34:19;;;;;;;1.60;1.20;;;8.60;99.90;;;;;;4937802;29;20444;-46
2022/12/27 00:36:48;;;;;;;1.73;1.02;;;8.50;99.90;;;;;;4937710;29;20482;-46
2022/12/27 00:39:16;;;;;;;3.70;1.40;;;8.50;99.90;;;;;;4937799;29;20220;-45
2022/12/27 00:41:46;;;;;;;1.63;0.93;;;8.50;99.90;;;;;;4939317;29;20447;-47
2022/12/27 00:44:16;;;;;;;1.52;0.80;;;8.50;99.90;;;;;;4940414;29;20522;-45
2022/12/27 00:46:45;;;;;;;1.53;1.07;;;8.50;99.90;;;;;;4951328;28;20295;-47
2022/12/27 00:49:13;;;;;;;1.52;1.00;;;8.50;99.90;;;;;;4938156;29;20466;-47
2022/12/27 00:51:42;;;;;;;2.30;0.95;;;8.50;99.90;;;;;;4949093;29;20207;-47
2022/12/27 00:54:10;;;;;;;2.80;1.00;;;8.50;99.90;;;;;;4950785;28;20571;-47
2022/12/27 00:56:39;;;;;;;2.10;0.80;;;8.50;99.90;;;;;;4938404;29;20464;-46
2022/12/27 00:59:07;;;;;;;1.77;0.87;;;8.50;99.90;;;;;;4946436;28;20478;-48
2022/12/27 01:01:38;;;;;;;2.70;0.83;;;8.50;99.90;;;;;;4941975;28;20699;-45
2022/12/27 01:04:07;;;;;;;1.45;0.80;;;8.50;99.90;;;;;;4929402;29;20859;-47
2022/12/27 01:06:36;;;;;;;2.13;0.90;;;8.50;99.90;;;;;;4948125;29;20291;-46
2022/12/27 01:09:06;;;;;;;2.27;0.90;;;8.50;99.90;;;;;;4947191;28;20231;-47
2022/12/27 01:11:34;;;;;;;0.80;0.73;;;8.50;99.90;;;;;;4945637;28;20493;-47
2022/12/27 01:14:05;;;;;;;2.50;1.10;;;8.50;99.90;;;;;;4931013;29;20514;-46
2022/12/27 01:16:34;;;;;;;1.15;0.80;;;8.50;99.90;;;;;;4948860;29;20821;-46
2022/12/27 01:19:04;;;;;;;2.30;0.80;;;8.50;99.90;;;;;;4937563;28;20227;-47
2022/12/27 01:21:32;;;;;;;4.00;0.90;;;8.50;99.90;;;;;;4938360;28;20447;-48
2022/12/27 01:24:01;;;;;;;1.10;1.00;;;8.50;99.90;;;;;;4944658;28;20448;-47
2022/12/27 01:26:29;;;;;;;1.02;0.80;;;8.50;99.90;;;;;;4942584;28;20211;-46
2022/12/27 01:28:58;;;;;;;1.80;1.20;;;8.50;99.90;;;;;;4946391;28;20224;-46
2022/12/27 01:31:28;;;;;;;1.40;0.80;;;8.50;99.90;;;;;;4949647;28;20230;-46
2022/12/27 01:33:58;;;;;;;1.37;0.80;;;8.40;99.90;;;;;;4934946;29;20193;-47
2022/12/27 01:36:30;;;;;;;2.47;1.10;;;8.50;99.90;;;;;;4924357;29;20518;-47
2022/12/27 01:38:59;;;;;;;2.90;1.10;;;8.50;99.90;;;;;;4946717;29;20471;-48
2022/12/27 01:44:52;;;;;;;5.10;1.07;;;8.40;99.90;;;;;;4933246;29;20467;-46
2022/12/27 01:47:29;;;;;;;2.00;0.60;;;8.40;99.90;;;;;;4870419;29;20427;-46
2022/12/27 01:50:06;;;;;;;1.73;0.90;;;8.40;99.90;;;;;;4915148;29;21020;-46
2022/12/27 01:52:39;;;;;;;1.70;1.10;;;8.40;99.90;;;;;;4947856;28;20203;-47
2022/12/27 01:55:18;;;;;;;1.30;0.97;;;8.40;99.90;;;;;;4963244;28;20481;-48
2022/12/27 01:57:48;;;;;;;0.90;0.70;;;8.40;99.90;;;;;;4951040;28;20510;-46
2022/12/27 02:00:17;;;;;;;2.75;1.00;;;8.40;99.90;;;;;;4948114;28;20221;-48
2022/12/27 02:02:46;;;;;;;2.60;0.90;;;8.40;99.90;;;;;;4950654;28;20207;-45
2022/12/27 02:05:18;;;;;;;2.03;1.10;;;8.40;99.90;;;;;;4936690;29;20470;-46
2022/12/27 02:08:01;;;;;;;2.20;1.10;;;8.40;99.90;;;;;;4929486;29;20238;-47
2022/12/27 02:10:31;;;;;;;0.80;0.63;;;8.40;99.90;;;;;;4942053;29;20526;-48
2022/12/27 02:13:01;;;;;;;2.38;0.88;;;8.40;99.90;;;;;;4937008;28;20203;-47
2022/12/27 02:15:29;;;;;;;0.90;0.73;;;8.40;99.90;;;;;;4931294;28;20263;-47
2022/12/27 02:17:58;;;;;;;2.03;1.00;;;8.40;99.90;;;;;;4947892;29;20286;-46
2022/12/27 02:20:35;;;;;;;1.98;1.20;;;8.40;99.90;;;;;;4937815;28;20224;-47
2022/12/27 02:26:47;;;;;;;1.50;1.07;;;8.40;99.90;;;;;;4933321;29;20705;-46
2022/12/27 02:29:44;;;;;;;1.80;1.40;;;8.40;99.90;;;;;;4935683;28;20867;-45
2022/12/27 02:32:19;;;;;;;1.77;0.80;;;8.40;99.90;;;;;;4922813;29;20203;-46
2022/12/27 02:34:58;;;;;;;2.23;1.10;;;8.30;99.90;;;;;;4931597;29;20274;-47
2022/12/27 02:37:31;;;;;;;1.33;0.80;;;8.30;99.90;;;;;;4945871;28;20471;-48
2022/12/27 02:54:37;;;;;;;1.73;0.90;;;8.30;99.90;;;;;;4946895;28;20199;-47
2022/12/27 02:57:13;;;;;;;2.20;1.00;;;8.30;99.90;;;;;;4949404;28;20219;-46
2022/12/27 03:03:22;;;;;;;1.60;1.33;;;8.30;99.90;;;;;;4964101;28;20446;-46
2022/12/27 03:09:08;;;;;;;1.58;0.90;;;8.30;99.90;;;;;;4942575;28;20217;-47
2022/12/27 03:17:32;;;;;;;0.80;0.77;;;8.30;99.90;;;;;;4955917;28;20232;-47
2022/12/27 03:25:44;;;;;;;2.55;1.15;;;8.30;99.90;;;;;;4965443;28;20226;-47
2022/12/27 03:34:03;;;;;;;1.60;0.95;;;8.30;99.90;;;;;;4976957;28;20198;-46
2022/12/27 03:39:27;;;;;;;0.80;0.80;;;8.20;99.90;;;;;;4965942;28;20226;-46
2022/12/27 03:44:46;;;;;;;1.70;1.30;;;8.20;99.90;;;;;;4946659;28;20196;-46
2022/12/27 03:47:36;;;;;;;1.00;0.68;;;8.20;99.90;;;;;;4958197;28;20191;-46
2022/12/27 03:50:09;;;;;;;3.72;0.70;;;8.20;99.90;;;;;;4952012;28;20234;-47
2022/12/27 03:52:44;;;;;;;1.17;0.82;;;8.20;99.90;;;;;;4962497;28;20200;-46
2022/12/27 03:55:13;;;;;;;1.40;0.70;;;8.20;99.90;;;;;;4958769;28;20278;-49
2022/12/27 03:57:42;;;;;;;5.00;1.05;;;8.20;99.90;;;;;;4971850;28;20258;-46
2022/12/27 04:00:12;;;;;;;4.60;0.82;;;8.20;99.90;;;;;;4954070;28;20255;-46
2022/12/27 04:02:41;;;;;;;2.75;1.15;;;8.20;99.90;;;;;;4944989;28;20248;-46
2022/12/27 04:05:10;;;;;;;1.08;0.65;;;8.20;99.90;;;;;;4946988;28;20635;-48
2022/12/27 04:35:18;;;;;;;2.90;1.15;;;8.10;99.90;;;;;;4866904;29;20234;-47
2022/12/27 04:37:46;;;;;;;2.90;1.02;;;8.10;99.90;;;;;;4867279;29;20289;-47
2022/12/27 04:57:07;;;;;;;2.30;1.02;;;8.10;99.90;;;;;;4947271;28;20226;-47
2022/12/27 05:02:22;;;;;;;5.13;0.90;;;8.10;99.90;;;;;;4934948;28;20189;-46
2022/12/27 05:04:51;;;;;;;1.60;0.80;;;8.10;99.90;;;;;;4944407;28;20211;-46
2022/12/27 05:15:41;;;;;;;1.33;0.80;;;8.10;99.90;;;;;;4948995;28;20231;-47
2022/12/27 05:18:09;;;;;;;3.15;0.70;;;8.10;99.90;;;;;;4940975;29;20235;-47
2022/12/27 05:20:38;;;;;;;1.50;0.82;;;8.10;99.90;;;;;;4946541;28;20220;-46
2022/12/27 05:25:52;;;;;;;2.05;0.70;;;8.00;99.90;;;;;;4950257;28;20230;-46
2022/12/27 05:28:22;;;;;;;2.45;0.90;;;8.10;99.90;;;;;;4926272;29;20223;-46
2022/12/27 05:30:50;;;;;;;0.73;0.68;;;8.00;99.90;;;;;;4935390;28;20696;-47
2022/12/27 05:33:19;;;;;;;1.67;0.98;;;8.00;99.90;;;;;;4953693;28;20251;-47
2022/12/27 05:35:47;;;;;;;2.53;1.35;;;8.00;99.90;;;;;;4964171;28;20330;-47
2022/12/27 05:38:16;;;;;;;1.80;0.70;;;8.00;99.90;;;;;;4952875;28;20222;-47
2022/12/27 05:40:45;;;;;;;1.67;1.00;;;8.00;99.90;;;;;;4951746;28;20330;-48
2022/12/27 05:43:14;;;;;;;2.20;0.70;;;8.00;99.90;;;;;;4950389;28;20261;-47
2022/12/27 05:45:44;;;;;;;1.95;0.65;;;8.00;99.90;;;;;;4947892;28;20860;-44
2022/12/27 05:48:13;;;;;;;2.10;1.05;;;8.00;99.90;;;;;;4952942;28;20577;-47
2022/12/27 05:50:41;;;;;;;2.17;0.88;;;8.00;99.90;;;;;;4937206;28;20219;-47
2022/12/27 05:53:10;;;;;;;4.28;1.40;;;8.00;99.90;;;;;;4946508;29;20200;-46
2022/12/27 05:55:39;;;;;;;0.90;0.73;;;8.00;99.90;;;;;;4938651;29;20248;-46
2022/12/27 05:58:08;;;;;;;1.10;0.60;;;8.00;99.90;;;;;;4939032;28;20219;-46
2022/12/27 06:00:36;;;;;;;1.60;0.75;;;8.00;99.90;;;;;;4939562;28;20219;-46
2022/12/27 06:03:08;;;;;;;1.00;0.70;;;8.00;99.90;;;;;;4931503;28;20200;-46
2022/12/27 06:05:37;;;;;;;3.22;0.60;;;8.00;99.90;;;;;;4941071;28;20225;-47
2022/12/27 06:08:06;;;;;;;1.00;0.70;;;8.00;99.90;;;;;;4941903;28;20689;-47
2022/12/27 06:10:37;;;;;;;5.03;1.08;;;8.00;99.90;;;;;;4942172;28;20699;-47
2022/12/27 06:13:06;;;;;;;1.38;0.80;;;8.00;99.90;;;;;;4955896;28;20335;-46
2022/12/27 06:15:34;;;;;;;1.90;0.85;;;8.00;99.90;;;;;;4961137;28;21023;-47
2022/12/27 06:18:05;;;;;;;1.20;0.75;;;8.00;99.90;;;;;;4949468;28;20219;-46
2022/12/27 06:20:36;;;;;;;1.00;0.70;;;8.00;99.90;;;;;;4946523;28;20725;-48
2022/12/27 06:23:04;;;;;;;3.80;1.23;;;8.00;99.90;;;;;;4949257;28;20199;-47
2022/12/27 06:25:33;;;;;;;1.25;0.50;;;8.00;99.90;;;;;;4954100;28;20220;-47
2022/12/27 06:28:01;;;;;;;1.88;0.90;;;8.00;99.90;;;;;;4955318;28;20738;-47
2022/12/27 06:30:30;;;;;;;1.13;0.95;;;7.90;99.90;;;;;;4968492;28;20249;-46
2022/12/27 06:33:03;;;;;;;1.08;0.75;;;7.90;99.90;;;;;;4955706;28;20230;-47
2022/12/27 06:35:37;;;;;;;1.23;0.70;;;8.00;99.90;;;;;;4965476;28;20586;-46
2022/12/27 06:38:05;;;;;;;1.92;1.20;;;7.90;99.90;;;;;;4970956;28;20227;-47
2022/12/27 06:40:34;;;;;;;2.03;0.65;;;7.90;99.90;;;;;;4949369;28;20237;-47
2022/12/27 06:43:05;;;;;;;2.90;1.10;;;7.90;99.90;;;;;;4947585;28;20207;-46
2022/12/27 06:45:34;;;;;;;2.50;1.10;;;7.90;99.90;;;;;;4948500;28;20227;-46
2022/12/27 06:48:03;;;;;;;2.55;0.70;;;7.90;99.90;;;;;;4953714;28;20270;-46
2022/12/27 06:50:31;;;;;;;2.00;0.90;;;7.90;99.90;;;;;;4969249;28;20214;-47
2022/12/27 06:53:01;;;;;;;3.15;0.98;;;7.90;99.90;;;;;;4951764;28;20210;-49
2022/12/27 06:55:29;;;;;;;1.10;0.77;;;7.90;99.90;;;;;;4948885;28;20301;-47
2022/12/27 06:57:59;;;;;;;0.82;0.73;;;7.90;99.90;;;;;;4940454;29;20584;-47
2022/12/27 07:00:28;;;;;;;1.95;0.63;;;7.90;99.90;;;;;;4953392;28;20231;-46
2022/12/27 07:02:56;;;;;;;3.33;0.82;;;7.90;99.90;;;;;;4939029;29;20216;-46
2022/12/27 07:05:25;;;;;;;1.25;1.15;;;7.90;99.90;;;;;;4941030;28;20220;-46
2022/12/27 07:07:53;;;;;;;0.80;0.70;;;7.90;99.90;;;;;;4947472;28;20220;-46
2022/12/27 07:10:23;;;;;;;3.65;1.25;;;7.90;99.90;;;;;;4934348;29;20220;-45
2022/12/27 07:12:52;;;;;;;1.58;0.85;;;7.90;99.90;;;;;;4952807;28;20703;-47
2022/12/27 07:15:20;;;;;;;1.00;0.60;;;7.90;99.90;;;;;;4940049;29;20302;-46
2022/12/27 07:17:49;;;;;;;4.47;1.23;;;7.90;99.90;;;;;;4948943;28;20248;-47
2022/12/27 07:20:18;;;;;;;2.40;0.95;;;7.90;99.90;;;;;;4933767;29;20227;-46
2022/12/27 07:22:46;;;;;;;1.23;0.75;;;7.80;99.90;;;;;;4949300;28;20196;-44
2022/12/27 07:25:14;;;;;;;1.75;1.08;;;7.80;99.90;;;;;;4939594;28;20255;-46
2022/12/27 07:27:44;;;;;;;0.70;0.55;;;7.80;99.90;;;;;;4949952;28;20227;-48
2022/12/27 07:30:13;;;;;;;4.20;0.68;;;7.80;99.90;;;;;;4957493;28;20598;-47
2022/12/27 07:32:41;;;;;;;2.50;1.02;;;7.90;99.90;;;;;;4972007;28;20344;-46
2022/12/27 07:35:10;;;;;;;2.60;1.05;;;7.90;99.90;;;;;;4963510;28;20722;-45
2022/12/27 07:37:38;;;;;;;0.82;0.55;;;7.80;99.90;;;;;;4956615;28;20224;-47
2022/12/27 07:40:08;;;;;;;0.70;0.70;;;7.80;99.90;;;;;;4949532;28;20258;-45
2022/12/27 07:42:39;;;;;;;0.90;0.68;;;7.80;99.90;;;;;;4931840;29;20200;-47
2022/12/27 07:45:10;;;;;;;2.08;0.90;;;7.80;99.90;;;;;;4941462;28;20692;-46
2022/12/27 07:47:38;;;;;;;2.40;0.75;;;7.80;99.90;;;;;;4953210;28;20239;-48
2022/12/27 07:50:07;;;;;;;1.75;0.95;;;7.80;99.90;;;;;;4941548;28;20275;-46
2022/12/27 07:52:36;;;;;;;2.25;0.70;;;7.80;99.90;;;;;;4951315;28;20199;-46
2022/12/27 07:55:05;;;;;;;1.80;0.80;;;7.80;99.90;;;;;;4927884;28;20338;-45
2022/12/27 07:57:33;;;;;;;1.77;0.90;;;7.80;99.90;;;;;;4930604;29;20729;-46
2022/12/27 08:00:02;;;;;;;1.67;0.70;;;7.80;99.90;;;;;;4929311;29;20315;-47
2022/12/27 08:02:42;;;;;;;2.20;1.08;;;7.80;99.90;;;;;;4947699;28;20283;-47
2022/12/27 08:05:12;;;;;;;1.45;0.75;;;7.80;99.90;;;;;;4954236;28;20224;-45
2022/12/27 08:07:42;;;;;;;3.42;1.13;;;7.80;99.90;;;;;;4940647;29;20692;-45
2022/12/27 08:10:10;;;;;;;2.75;1.35;;;7.80;99.90;;;;;;4962196;28;20236;-46
2022/12/27 08:12:40;;;;;;;2.40;1.00;;;7.70;99.90;;;;;;4950994;28;20888;-45
2022/12/27 08:15:10;;;;;;;1.05;0.70;;;7.80;99.90;;;;;;4931331;28;20272;-46
2022/12/27 08:17:43;;;;;;;1.80;0.73;;;7.70;99.90;;;;;;4947408;28;20247;-46
2022/12/27 08:20:14;;;;;;;2.20;0.90;;;7.80;99.90;;;;;;4922508;29;20315;-46
2022/12/27 08:22:45;;;;;;;1.95;0.80;;;7.80;99.90;;;;;;4947372;29;20196;-47
2022/12/27 08:25:14;;;;;;;1.48;0.70;;;7.70;99.90;;;;;;4931641;29;20227;-45
2022/12/27 08:27:44;;;;;;;0.80;0.80;;;7.80;99.90;;;;;;4936101;28;20531;-46
2022/12/27 08:30:13;;;;;;;1.23;0.90;;;7.70;99.90;;;;;;4957219;28;20226;-46
2022/12/27 08:32:43;;;;;;;1.23;0.60;;;7.70;99.90;;;;;;4968477;28;20207;-44
2022/12/27 08:35:11;;;;;;;2.75;0.93;;;7.70;99.90;;;;;;4949762;28;20302;-46
2022/12/27 08:38:01;;;;;;;0.93;0.60;;;7.70;99.90;;;;;;4950799;28;20218;-45
2022/12/27 08:40:29;;;;;;;2.60;0.80;;;7.70;99.90;;;;;;4966565;28;20357;-46
2022/12/27 08:42:59;;;;;;;1.80;1.23;;;7.70;99.90;;;;;;4968180;28;20192;-48
2022/12/27 08:45:27;;;;;;;0.95;0.80;;;7.70;99.90;;;;;;4959631;28;20223;-45
2022/12/27 08:48:00;;;;;;;2.45;0.90;;;7.70;99.90;;;;;;4965981;28;20322;-44
2022/12/27 08:50:30;;;;;;;3.13;0.70;;;7.70;99.90;;;;;;4962535;28;20215;-44
2022/12/27 08:53:00;;;;;;;1.88;0.70;;;7.70;99.90;;;;;;4960827;28;20603;-46
2022/12/27 08:55:30;;;;;;;2.75;1.10;;;7.70;99.90;;;;;;4969011;28;20215;-46
2022/12/27 08:58:05;;;;;;;3.00;0.80;;;7.70;99.90;;;;;;4968414;28;20223;-46
2022/12/27 09:00:43;;;;;;;1.58;0.82;;;7.70;99.90;;;;;;4955237;28;20715;-45
2022/12/27 09:03:12;;;;;;;1.80;0.77;;;7.70;99.90;;;;;;4956710;28;20224;-47
2022/12/27 09:05:41;;;;;;;1.42;0.70;;;7.70;99.90;;;;;;4968696;28;20234;-45
2022/12/27 09:08:13;;;;;;;1.35;0.80;;;7.70;99.90;;;;;;4953998;28;20933;-45
2022/12/27 09:10:41;;;;;;;2.28;0.85;;;7.70;99.90;;;;;;4960853;28;20227;-45
2022/12/27 09:13:09;;;;;;;2.30;0.80;;;7.70;99.90;;;;;;4971120;28;20195;-46
2022/12/27 09:15:38;;;;;;;1.23;0.60;;;7.70;99.90;;;;;;4927082;29;20224;-47
2022/12/27 09:18:07;;;;;;;0.75;0.75;;;7.70;99.90;;;;;;4950898;28;20647;-45
2022/12/27 09:20:37;;;;;;;1.00;0.75;;;7.70;99.90;;;;;;4950048;28;20326;-45
2022/12/27 09:23:06;;;;;;;1.25;0.77;;;7.70;99.90;;;;;;4968017;28;20210;-46
2022/12/27 09:25:34;;;;;;;0.88;0.52;;;7.70;99.90;;;;;;4946156;28;20311;-44
2022/12/27 09:28:03;;;;;;;1.45;0.93;;;7.70;99.90;;;;;;4950780;28;20227;-46
2022/12/27 09:30:31;;;;;;;2.25;0.73;;;7.70;99.90;;;;;;4943995;28;20314;-45
2022/12/27 09:33:00;;;;;;;1.13;0.50;;;7.70;99.90;;;;;;4951189;28;20237;-45
2022/12/27 09:35:28;;;;;;;0.70;0.60;;;7.70;99.90;;;;;;4955196;28;20219;-45
2022/12/27 09:38:00;;;;;;;0.60;0.57;;;7.70;99.90;;;;;;4950562;28;20688;-45
2022/12/27 09:40:28;;;;;;;0.73;0.55;;;7.70;99.90;;;;;;4950948;28;20301;-47
2022/12/27 09:43:05;;;;;;;3.00;0.70;;;7.70;99.90;;;;;;4952833;28;20831;-46
2022/12/27 09:45:52;;;;;;;1.35;0.75;;;7.70;99.90;;;;;;4964425;28;20223;-46
2022/12/27 09:48:26;;;;;;;1.02;0.77;;;7.70;99.90;;;;;;4940084;28;20238;-46
2022/12/27 09:51:05;;;;;;;0.88;0.68;;;7.70;99.90;;;;;;4950667;28;20295;-46
2022/12/27 09:53:43;;;;;;;1.00;0.70;;;7.70;99.90;;;;;;4961954;28;20220;-47
2022/12/27 09:56:13;;;;;;;2.13;0.75;;;7.70;99.90;;;;;;4951733;28;20354;-46
2022/12/27 09:58:49;;;;;;;1.45;0.70;;;7.70;99.90;;;;;;4970856;28;20310;-46
2022/12/27 10:01:22;;;;;;;1.00;0.63;;;7.70;99.90;;;;;;4961189;28;20332;-47
2022/12/27 10:03:51;;;;;;;1.60;0.90;;;7.70;99.90;;;;;;4961894;28;20234;-45
2022/12/27 10:06:42;;;;;;;0.80;0.50;;;7.70;99.90;;;;;;4966951;28;20582;-45
2022/12/27 10:09:35;;;;;;;1.33;0.60;;;7.70;99.90;;;;;;4946332;28;20266;-46
2022/12/27 10:12:17;;;;;;;1.38;0.60;;;7.70;99.90;;;;;;4963381;28;20847;-46
2022/12/27 10:14:59;;;;;;;2.13;0.70;;;7.70;99.90;;;;;;4961316;28;20223;-45
2022/12/27 10:17:40;;;;;;;1.20;0.90;;;7.70;99.90;;;;;;4947078;28;20231;-47
2022/12/27 10:20:21;;;;;;;0.85;0.70;;;7.70;99.90;;;;;;4930200;28;20310;-47
2022/12/27 10:22:52;;;;;;;0.88;0.70;;;7.70;99.90;;;;;;4951130;28;20652;-45
2022/12/27 10:25:24;;;;;;;0.70;0.70;;;7.70;99.90;;;;;;4928042;29;20307;-45
2022/12/27 10:27:58;;;;;;;1.85;0.65;;;7.70;99.90;;;;;;4935427;28;20258;-46
2022/12/27 10:30:30;;;;;;;1.80;0.57;;;7.70;99.90;;;;;;4947595;28;20376;-44
2022/12/27 10:33:00;;;;;;;1.23;0.60;;;7.70;99.90;;;;;;4962139;28;20205;-44
2022/12/27 10:35:29;;;;;;;1.00;0.90;;;7.70;99.90;;;;;;4970791;28;20221;-45
2022/12/27 10:38:00;;;;;;;1.02;0.70;;;7.70;99.90;;;;;;4970272;28;20250;-44
2022/12/27 10:40:38;;;;;;;2.05;0.70;;;7.70;99.90;;;;;;4946019;28;20796;-44
2022/12/27 10:43:16;;;;;;;0.80;0.80;;;7.70;99.90;;;;;;4937542;29;20196;-47
2022/12/27 10:45:45;;;;;;;1.05;0.50;;;7.60;99.90;;;;;;4935132;29;20277;-47
2022/12/27 10:48:21;;;;;;;2.58;2.15;;;7.60;99.90;;;;;;4934839;29;20228;-45
2022/12/27 10:50:54;;;;;;;3.03;1.00;;;7.70;99.90;;;;;;4945259;29;20223;-45
2022/12/27 10:53:42;;;;;;;4.68;0.95;;;7.70;99.90;;;;;;4946927;28;20199;-45
2022/12/27 10:56:25;;;;;;;1.77;0.75;;;7.70;99.90;;;;;;4944555;28;20233;-45
2022/12/27 10:58:55;;;;;;;2.20;0.98;;;7.70;99.90;;;;;;4948925;28;20218;-45
2022/12/27 11:01:28;;;;;;;1.70;1.17;;;7.70;99.90;;;;;;4961990;28;20219;-46
2022/12/27 11:04:10;;;;;;;1.55;0.80;;;7.70;99.90;;;;;;4947650;28;20953;-45
2022/12/27 11:06:48;;;;;;;3.38;1.10;;;7.70;99.90;;;;;;4957670;28;20245;-45
2022/12/27 11:09:29;;;;;;;1.48;1.10;;;7.70;99.90;;;;;;4959477;28;20719;-45
2022/12/27 11:12:19;;;;;;;3.50;0.70;;;7.70;99.90;;;;;;4968044;28;20195;-46
2022/12/27 11:14:56;;;;;;;3.42;0.98;;;7.60;99.90;;;;;;4934520;29;20686;-45
2022/12/27 11:17:27;;;;;;;1.63;0.73;;;7.70;99.90;;;;;;4952957;28;20220;-46
2022/12/27 11:19:58;;;;;;;2.25;1.15;;;7.70;99.90;;;;;;4938250;28;20214;-46
2022/12/27 11:22:27;;;;;;;1.98;1.08;;;7.60;99.90;;;;;;4944234;29;20248;-47
2022/12/27 11:24:59;;;;;;;1.35;0.80;;;7.70;99.90;;;;;;4947564;28;20227;-46
2022/12/27 11:27:30;;;;;;;2.25;1.00;;;7.70;99.90;;;;;;4942149;29;20577;-45
2022/12/27 11:29:59;;;;;;;1.60;1.30;;;7.70;99.90;;;;;;4944337;28;20962;-46
2022/12/27 11:32:28;;;;;;;1.30;0.57;;;7.70;99.90;;;;;;4951219;28;20191;-46
2022/12/27 11:34:57;;;;;;;1.52;0.90;;;7.70;99.90;;;;;;4943540;29;20748;-45
2022/12/27 11:37:27;;;;;;;2.30;1.15;;;7.70;99.90;;;;;;4936085;28;20591;-45
2022/12/27 11:40:12;;;;;;;2.22;1.63;;;7.60;99.90;;;;;;4950080;28;20647;-47
2022/12/27 11:42:47;;;;;;;1.08;0.60;;;7.70;99.90;;;;;;4935308;29;20274;-45
2022/12/27 11:45:22;;;;;;;2.03;0.60;;;7.60;99.90;;;;;;4928039;29;20239;-46
2022/12/27 11:47:55;;;;;;;0.85;0.80;;;7.60;99.90;;;;;;4932400;29;20251;-45
2022/12/27 11:50:42;;;;;;;2.67;0.90;;;7.60;99.90;;;;;;4927009;29;20225;-46
2022/12/27 11:53:49;;;;;;;1.52;0.63;;;7.60;99.90;;;;;;4937707;29;20283;-45
2022/12/27 11:56:26;;;;;;;1.58;0.70;;;7.60;99.90;;;;;;4957769;28;20764;-47
2022/12/27 11:59:29;;;;;;;1.10;0.77;;;7.60;99.90;;;;;;4955863;28;20233;-46
2022/12/27 12:02:26;;;;;;;0.95;0.77;;;7.60;99.90;;;;;;4967504;28;20227;-45
2022/12/27 12:05:37;;;;;;;1.45;0.77;;;7.60;99.90;;;;;;4957615;28;20231;-45
2022/12/27 12:08:34;;;;;;;1.13;0.45;;;7.60;99.90;;;;;;4931680;29;20212;-46
2022/12/27 12:11:13;;;;;;;1.95;0.95;;;7.60;99.90;;;;;;4944433;29;20295;-45
2022/12/27 12:14:09;;;;;;;1.60;0.60;;;7.60;99.90;;;;;;4949909;29;20238;-45
2022/12/27 12:16:55;;;;;;;0.80;0.70;;;7.60;99.90;;;;;;4933535;29;20331;-45
2022/12/27 12:19:41;;;;;;;1.58;0.80;;;7.60;99.90;;;;;;4957946;28;20208;-45
2022/12/27 12:22:28;;;;;;;1.05;0.60;;;7.60;99.90;;;;;;4949045;28;20234;-46
2022/12/27 12:25:23;;;;;;;1.73;0.90;;;7.60;99.90;;;;;;4948811;28;20230;-47
2022/12/27 12:28:13;;;;;;;2.03;0.80;;;7.60;99.90;;;;;;4955148;28;20262;-46
2022/12/27 12:31:13;;;;;;;2.28;0.90;;;7.60;99.90;;;;;;4931721;28;20282;-46
2022/12/27 12:33:56;;;;;;;1.67;0.90;;;7.60;99.90;;;;;;4932372;29;20725;-45
2022/12/27 12:36:44;;;;;;;2.35;1.10;;;7.60;99.90;;;;;;4931782;29;20860;-46
2022/12/27 12:39:30;;;;;;;1.23;0.80;;;7.60;99.90;;;;;;4940852;29;20571;-46
2022/12/27 12:42:14;;;;;;;1.60;0.75;;;7.60;99.90;;;;;;4932243;29;20291;-46
2022/12/27 12:45:01;;;;;;;1.35;0.65;;;7.60;99.90;;;;;;4926032;29;20237;-45
2022/12/27 12:48:05;;;;;;;1.02;0.75;;;7.60;99.90;;;;;;4948520;28;20219;-46
2022/12/27 12:50:52;;;;;;;1.45;0.95;;;7.60;99.90;;;;;;4939626;28;20216;-44
2022/12/27 12:53:35;;;;;;;1.27;0.60;;;7.60;99.90;;;;;;4931009;29;20224;-46
2022/12/27 12:56:28;;;;;;;1.40;0.75;;;7.60;99.90;;;;;;4942954;29;20228;-45
2022/12/27 12:59:11;;;;;;;0.70;0.50;;;7.60;99.90;;;;;;4920699;29;20224;-47
2022/12/27 13:01:53;;;;;;;1.05;0.70;;;7.60;99.90;;;;;;4928236;29;20271;-47
2022/12/27 13:04:43;;;;;;;0.77;0.50;;;7.60;99.90;;;;;;4929281;29;20244;-47
2022/12/27 13:07:44;;;;;;;2.40;1.25;;;7.60;99.90;;;;;;4918692;29;20199;-45
2022/12/27 13:10:44;;;;;;;1.20;1.00;;;7.60;99.90;;;;;;4908519;29;20896;-46
2022/12/27 13:13:20;;;;;;;1.42;0.60;;;7.60;99.90;;;;;;4935794;29;20196;-45
2022/12/27 13:16:07;;;;;;;0.82;0.68;;;7.60;99.90;;;;;;4943172;28;20314;-46
2022/12/27 13:18:41;;;;;;;1.35;0.50;;;7.60;99.90;;;;;;4928744;29;20216;-46
2022/12/27 13:21:23;;;;;;;1.50;0.50;;;7.60;99.90;;;;;;4965400;28;20326;-46
2022/12/27 13:24:06;;;;;;;2.90;1.33;;;7.60;99.90;;;;;;4942260;28;20254;-47
2022/12/27 13:26:44;;;;;;;1.40;0.70;;;7.60;99.90;;;;;;4937452;29;20222;-45
2022/12/27 13:29:41;;;;;;;1.00;0.65;;;7.60;99.90;;;;;;4959802;28;20211;-46
2022/12/27 13:32:23;;;;;;;1.65;0.80;;;7.60;99.90;;;;;;4921598;29;20200;-47
2022/12/27 13:35:06;;;;;;;2.15;0.70;;;7.60;99.90;;;;;;4949904;28;20309;-47
2022/12/27 13:37:47;;;;;;;0.80;0.57;;;7.60;99.90;;;;;;4956386;28;20251;-45
2022/12/27 13:40:39;;;;;;;1.90;0.65;;;7.60;99.90;;;;;;4956678;28;20219;-47
2022/12/27 13:43:46;;;;;;;0.80;0.60;;;7.60;99.90;;;;;;4957469;28;20252;-47
2022/12/27 13:46:47;;;;;;;0.80;0.60;;;7.60;99.90;;;;;;4886715;28;20618;-46
2022/12/27 13:49:47;;;;;;;0.70;0.50;;;7.60;99.90;;;;;;4962702;28;20291;-46
2022/12/27 13:52:33;;;;;;;0.75;0.57;;;7.60;99.90;;;;;;4951186;29;20565;-47
2022/12/27 13:55:15;;;;;;;1.13;0.75;;;7.60;99.90;;;;;;4946924;29;20223;-46
2022/12/27 13:58:09;;;;;;;1.00;0.68;;;7.60;99.90;;;;;;4932889;29;20220;-44
2022/12/27 14:00:46;;;;;;;1.98;0.90;;;7.60;99.90;;;;;;4949414;28;20249;-47
2022/12/27 14:03:48;;;;;;;2.05;0.90;;;7.60;99.90;;;;;;4947460;28;20203;-47
2022/12/27 14:06:36;;;;;;;0.90;0.47;;;7.60;99.90;;;;;;4952509;28;20229;-45
2022/12/27 14:09:44;;;;;;;1.13;0.70;;;7.60;99.90;;;;;;4950594;28;20413;-45
2022/12/27 14:13:00;;;;;;;1.35;0.80;;;7.60;99.90;;;;;;4946220;28;20613;-44
2022/12/27 14:16:04;;;;;;;0.80;0.60;;;7.60;99.90;;;;;;4940221;29;20327;-45
2022/12/27 14:19:05;;;;;;;0.80;0.50;;;7.60;99.90;;;;;;4930583;28;20231;-45
2022/12/27 14:22:09;;;;;;;1.00;0.68;;;7.60;99.90;;;;;;4918589;28;20253;-46
2022/12/27 14:33:39;;;;;;;1.33;0.75;;;7.50;99.90;;;;;;4952006;28;20215;-46
2022/12/27 14:36:46;;;;;;;0.98;0.55;;;7.50;99.90;;;;;;4942338;28;20418;-46
2022/12/27 14:40:08;;;;;;;1.90;0.70;;;7.50;99.90;;;;;;4934693;28;20683;-47
2022/12/27 14:43:09;;;;;;;1.02;0.70;;;7.50;99.90;;;;;;4847693;29;20318;-48
2022/12/27 14:46:11;;;;;;;0.60;0.52;;;7.60;99.90;;;;;;4864133;29;20222;-45
2022/12/27 14:49:19;;;;;;;1.73;0.73;;;7.50;99.90;;;;;;4951642;28;20259;-45
2022/12/27 14:52:25;;;;;;;2.25;0.60;;;7.60;99.90;;;;;;4897142;29;20273;-47
2022/12/27 14:55:27;;;;;;;0.60;0.55;;;7.50;99.90;;;;;;4922125;29;20712;-45
2022/12/27 14:58:15;;;;;;;1.40;0.52;;;7.50;99.90;;;;;;4913854;29;20220;-45
2022/12/27 15:01:03;;;;;;;1.00;0.60;;;7.50;99.90;;;;;;4921831;29;20308;-47
2022/12/27 15:04:01;;;;;;;1.45;1.02;;;7.50;99.90;;;;;;4956065;28;20215;-49
2022/12/27 15:07:05;;;;;;;1.60;0.90;;;7.50;99.90;;;;;;4958108;28;20211;-46
2022/12/27 15:09:45;;;;;;;0.80;0.55;;;7.50;99.90;;;;;;4964942;28;20206;-47
2022/12/27 15:12:23;;;;;;;0.60;0.60;;;7.60;99.90;;;;;;4950487;28;20199;-47
2022/12/27 15:15:10;;;;;;;0.90;0.60;;;7.50;99.90;;;;;;4938307;28;20231;-46
2022/12/27 15:26:14;;;;;;;6.30;0.90;;;7.50;99.90;;;;;;4927950;28;20223;-45
2022/12/27 15:29:36;;;;;;;1.17;1.08;;;7.50;99.90;;;;;;4940491;28;20208;-45
2022/12/27 15:33:22;;;;;;;1.65;0.80;;;7.60;99.90;;;;;;4910493;29;20201;-45
2022/12/27 15:36:58;;;;;;;2.58;1.20;;;7.50;99.90;;;;;;4916521;29;20352;-44
2022/12/27 15:39:57;;;;;;;0.90;0.70;;;7.60;99.90;;;;;;4935150;29;20247;-47
2022/12/27 15:47:25;;;;;;;1.70;0.88;;;7.50;99.90;;;;;;4933749;29;20224;-47
2022/12/27 15:50:40;;;;;;;1.30;0.70;;;7.50;99.90;;;;;;4881794;29;20243;-45
2022/12/27 15:58:11;;;;;;;1.50;0.90;;;7.50;99.90;;;;;;4950413;28;20219;-46
2022/12/27 16:01:29;;;;;;;0.70;0.55;;;7.50;99.90;;;;;;4952997;28;20221;-47
2022/12/27 16:04:41;;;;;;;0.65;0.50;;;7.60;99.90;;;;;;4954138;28;20217;-46
2022/12/27 16:08:50;;;;;;;1.48;0.77;;;7.60;99.90;;;;;;4944932;28;20611;-46